Time;durP1;ratioP1;P1;durP2;ratioP2;P2;SDS_P1;SDS_P2;PMS_P1;PMS_P2;Temp;Humidity;BMP_temperature;BMP_pressure;BME280_temperature;BME280_humidity;BME280_pressure;Samples;Min_cycle;Max_cycle;Signal;HPM_P1;HPM_P2
2022/04/28 00:01:11;;;;;;;15.43;4.93;;;;;;;;;;5071213;28;20028;-77
2022/04/28 00:03:37;;;;;;;17.55;5.15;;;;;;;;;;5071385;28;20043;-77
2022/04/28 00:06:03;;;;;;;13.95;5.00;;;;;;;;;;5071319;28;20029;-77
2022/04/28 00:08:29;;;;;;;9.75;4.47;;;;;;;;;;5071271;28;20025;-77
2022/04/28 00:10:55;;;;;;;14.50;5.03;;;;;;;;;;5069922;28;20040;-77
2022/04/28 00:13:21;;;;;;;15.13;5.30;;;;;;;;;;5071310;28;20033;-77
2022/04/28 00:15:47;;;;;;;12.82;4.85;;;;;;;;;;5071270;28;20414;-77
2022/04/28 00:18:13;;;;;;;13.27;5.47;;;;;;;;;;5071261;28;20564;-77
2022/04/28 00:20:39;;;;;;;15.75;5.22;;;;;;;;;;5071189;28;20478;-77
2022/04/28 00:23:05;;;;;;;13.82;5.20;;;;;;;;;;5071311;28;20030;-77
2022/04/28 00:25:31;;;;;;;13.18;5.25;;;;;;;;;;5071294;28;20081;-77
2022/04/28 00:27:57;;;;;;;14.68;5.50;;;;;;;;;;5071219;28;20099;-77
2022/04/28 00:30:23;;;;;;;18.15;5.20;;;;;;;;;;5073917;28;20170;-77
2022/04/28 00:32:49;;;;;;;17.20;5.88;;;;;;;;;;5074761;28;20029;-77
2022/04/28 00:35:15;;;;;;;16.17;5.40;;;;;;;;;;5074532;28;20033;-77
2022/04/28 00:37:41;;;;;;;16.88;5.43;;;;;;;;;;5074812;28;20028;-77
2022/04/28 00:40:08;;;;;;;13.90;5.80;;;;;;;;;;5074629;28;20116;-77
2022/04/28 00:42:34;;;;;;;13.75;5.78;;;;;;;;;;5074672;28;20074;-77
2022/04/28 00:45:00;;;;;;;14.68;5.30;;;;;;;;;;5074433;28;20049;-77
2022/04/28 00:50:38;;;;;;;19.13;5.45;;;;;;;;;;5074631;28;20021;-77
2022/04/28 00:52:58;;;;;;;19.30;5.70;;;;;;;;;;5074568;28;20390;-77
2022/04/28 00:55:24;;;;;;;14.55;5.38;;;;;;;;;;5074370;28;20392;-77
2022/04/28 00:57:51;;;;;;;24.65;6.10;;;;;;;;;;5074399;28;20043;-78
2022/04/28 01:00:17;;;;;;;18.08;5.95;;;;;;;;;;5073953;28;20120;-77
2022/04/28 01:02:43;;;;;;;15.10;5.10;;;;;;;;;;5074234;28;20485;-77
2022/04/28 01:05:10;;;;;;;17.95;5.43;;;;;;;;;;5072676;28;20130;-77
2022/04/28 01:07:36;;;;;;;18.80;5.88;;;;;;;;;;5074192;28;20029;-77
2022/04/28 01:10:03;;;;;;;16.58;5.93;;;;;;;;;;5073997;28;20044;-77
2022/04/28 01:12:29;;;;;;;20.55;5.28;;;;;;;;;;5074056;28;20509;-77
2022/04/28 01:14:55;;;;;;;16.17;5.90;;;;;;;;;;5073870;28;20033;-77
2022/04/28 01:17:21;;;;;;;13.25;5.63;;;;;;;;;;5074086;28;20457;-77
2022/04/28 01:19:47;;;;;;;15.70;5.70;;;;;;;;;;5073942;28;20497;-77
2022/04/28 01:22:13;;;;;;;18.67;5.88;;;;;;;;;;5072433;28;20359;-76
2022/04/28 01:24:39;;;;;;;14.48;5.63;;;;;;;;;;5073812;28;20032;-76
2022/04/28 01:27:05;;;;;;;14.68;6.45;;;;;;;;;;5073856;28;20025;-77
2022/04/28 01:29:33;;;;;;;14.95;4.93;;;;;;;;;;5073685;28;20021;-77
2022/04/28 01:31:59;;;;;;;16.65;5.38;;;;;;;;;;5053709;28;20055;-77
2022/04/28 01:34:25;;;;;;;17.08;5.70;;;;;;;;;;5053586;28;20028;-77
2022/04/28 01:36:51;;;;;;;18.10;5.60;;;;;;;;;;5053491;28;20028;-77
2022/04/28 01:39:17;;;;;;;9.65;5.45;;;;;;;;;;5053201;28;20025;-77
2022/04/28 01:41:44;;;;;;;13.18;5.78;;;;;;;;;;5053398;28;20040;-77
2022/04/28 01:44:10;;;;;;;18.65;6.35;;;;;;;;;;5053363;28;20491;-77
2022/04/28 01:46:36;;;;;;;17.17;6.30;;;;;;;;;;5053211;28;20021;-77
2022/04/28 01:49:03;;;;;;;17.17;6.00;;;;;;;;;;5053475;28;20025;-77
2022/04/28 01:56:58;;;;;;;17.23;5.75;;;;;;;;;;5053189;28;20040;-76
2022/04/28 01:59:24;;;;;;;15.25;5.22;;;;;;;;;;5053168;28;20074;-76
2022/04/28 02:01:50;;;;;;;16.45;5.57;;;;;;;;;;5065977;28;20029;-76
2022/04/28 02:04:16;;;;;;;17.83;5.80;;;;;;;;;;5072934;28;20028;-76
2022/04/28 02:06:42;;;;;;;34.08;6.50;;;;;;;;;;5072820;28;20040;-76
2022/04/28 02:09:08;;;;;;;16.60;6.93;;;;;;;;;;5072899;28;20039;-76
2022/04/28 02:11:35;;;;;;;19.02;6.80;;;;;;;;;;5072928;28;20020;-76
2022/04/28 02:14:01;;;;;;;12.90;5.97;;;;;;;;;;5072850;28;20034;-76
2022/04/28 02:16:27;;;;;;;17.05;6.07;;;;;;;;;;5072769;28;20577;-76
2022/04/28 02:18:53;;;;;;;20.33;6.55;;;;;;;;;;5072769;28;20046;-75
2022/04/28 02:21:19;;;;;;;15.10;5.47;;;;;;;;;;5072607;28;20032;-75
2022/04/28 02:23:45;;;;;;;16.65;6.65;;;;;;;;;;5072618;28;20024;-76
2022/04/28 02:26:11;;;;;;;21.25;6.95;;;;;;;;;;5072754;28;20021;-76
2022/04/28 02:28:37;;;;;;;18.02;6.22;;;;;;;;;;5073361;28;20020;-75
2022/04/28 02:31:04;;;;;;;16.63;6.80;;;;;;;;;;5061106;28;20339;-76
2022/04/28 02:33:30;;;;;;;14.82;6.68;;;;;;;;;;5052984;28;20051;-75
2022/04/28 02:35:56;;;;;;;12.18;6.70;;;;;;;;;;5052930;28;20151;-75
2022/04/28 02:38:23;;;;;;;27.50;7.20;;;;;;;;;;5068144;28;20033;-75
2022/04/28 02:40:49;;;;;;;21.52;6.75;;;;;;;;;;5052449;28;20037;-75
2022/04/28 02:43:15;;;;;;;24.73;7.60;;;;;;;;;;5052268;28;20029;-75
2022/04/28 02:45:41;;;;;;;17.25;6.82;;;;;;;;;;5067348;28;20025;-76
2022/04/28 02:48:07;;;;;;;24.23;7.60;;;;;;;;;;5052118;28;20326;-76
2022/04/28 02:50:33;;;;;;;24.42;7.38;;;;;;;;;;5051980;28;20399;-76
2022/04/28 02:52:59;;;;;;;18.67;6.55;;;;;;;;;;5051553;28;20078;-76
2022/04/28 02:55:25;;;;;;;21.98;7.10;;;;;;;;;;5067376;28;20059;-76
2022/04/28 02:57:52;;;;;;;19.77;6.35;;;;;;;;;;5067325;28;20057;-76
2022/04/28 03:00:18;;;;;;;17.80;7.18;;;;;;;;;;5052036;28;20484;-75
2022/04/28 03:02:44;;;;;;;13.95;6.63;;;;;;;;;;5070595;28;20360;-76
2022/04/28 03:05:10;;;;;;;22.45;7.50;;;;;;;;;;5071863;28;20029;-76
2022/04/28 03:10:49;;;;;;;19.33;7.70;;;;;;;;;;5072047;28;20050;-76
2022/04/28 03:13:17;;;;;;;24.50;7.75;;;;;;;;;;5051511;28;20053;-76
2022/04/28 03:15:45;;;;;;;18.80;8.15;;;;;;;;;;5051641;28;20444;-76
2022/04/28 03:18:11;;;;;;;20.67;7.57;;;;;;;;;;5051717;28;20048;-76
2022/04/28 03:20:37;;;;;;;19.27;7.45;;;;;;;;;;5051567;28;20032;-76
2022/04/28 03:23:03;;;;;;;16.35;7.00;;;;;;;;;;5051761;28;20096;-76
2022/04/28 03:25:31;;;;;;;16.58;7.57;;;;;;;;;;5051710;28;20021;-76
2022/04/28 03:27:57;;;;;;;18.55;7.45;;;;;;;;;;5051546;28;20021;-76
2022/04/28 03:30:24;;;;;;;22.25;7.95;;;;;;;;;;5051147;28;20048;-75
2022/04/28 03:32:50;;;;;;;22.65;7.55;;;;;;;;;;5051649;28;20044;-76
2022/04/28 03:35:16;;;;;;;22.55;7.97;;;;;;;;;;5051414;28;20017;-76
2022/04/28 03:37:47;;;;;;;18.83;8.20;;;;;;;;;;5050248;28;20095;-76
2022/04/28 03:40:13;;;;;;;23.15;9.40;;;;;;;;;;5050158;28;20025;-75
2022/04/28 03:42:39;;;;;;;21.33;8.63;;;;;;;;;;5051494;28;20029;-75
2022/04/28 03:45:05;;;;;;;26.85;8.10;;;;;;;;;;5051286;28;20032;-76
2022/04/28 03:47:32;;;;;;;22.13;8.73;;;;;;;;;;5051521;28;20616;-76
2022/04/28 03:49:58;;;;;;;28.77;8.98;;;;;;;;;;5051169;28;20110;-76
2022/04/28 03:52:24;;;;;;;20.45;9.18;;;;;;;;;;5051392;28;20052;-76
2022/04/28 03:54:50;;;;;;;18.75;8.40;;;;;;;;;;5051269;28;20029;-76
2022/04/28 03:57:17;;;;;;;22.42;9.25;;;;;;;;;;5051454;28;20032;-76
2022/04/28 03:59:43;;;;;;;17.80;8.48;;;;;;;;;;5051219;28;20029;-75
2022/04/28 04:02:09;;;;;;;21.25;8.63;;;;;;;;;;5051010;28;20025;-76
2022/04/28 04:04:35;;;;;;;17.65;8.38;;;;;;;;;;5053479;28;20027;-76
2022/04/28 04:07:01;;;;;;;21.38;8.80;;;;;;;;;;5055110;28;20100;-77
2022/04/28 04:09:27;;;;;;;25.02;8.88;;;;;;;;;;5055348;28;20053;-76
2022/04/28 04:11:53;;;;;;;22.58;8.07;;;;;;;;;;5055008;28;20497;-75
2022/04/28 04:14:19;;;;;;;24.70;8.43;;;;;;;;;;5054958;28;20025;-76
2022/04/28 04:16:45;;;;;;;20.27;8.13;;;;;;;;;;5054871;28;20032;-75
2022/04/28 04:19:11;;;;;;;21.77;9.40;;;;;;;;;;5054729;28;20029;-75
2022/04/28 04:21:37;;;;;;;20.88;9.68;;;;;;;;;;5053383;28;20036;-76
2022/04/28 04:24:03;;;;;;;23.23;9.48;;;;;;;;;;5054759;28;20419;-75
2022/04/28 04:26:29;;;;;;;24.40;10.13;;;;;;;;;;5054776;28;20071;-76
2022/04/28 04:28:55;;;;;;;25.80;8.73;;;;;;;;;;5054675;28;20471;-76
2022/04/28 04:34:06;;;;;;;22.27;8.13;;;;;;;;;;5054605;28;20113;-75
2022/04/28 04:36:32;;;;;;;23.38;9.48;;;;;;;;;;5054461;28;20056;-76
2022/04/28 04:38:58;;;;;;;22.17;7.93;;;;;;;;;;5054219;28;20032;-75
2022/04/28 04:41:24;;;;;;;24.98;8.95;;;;;;;;;;5054581;28;20100;-76
2022/04/28 04:43:50;;;;;;;30.67;9.00;;;;;;;;;;5052961;28;20601;-75
2022/04/28 04:46:16;;;;;;;19.60;8.25;;;;;;;;;;5054282;28;20060;-75
2022/04/28 04:48:42;;;;;;;20.95;9.77;;;;;;;;;;5054306;28;20494;-75
2022/04/28 04:51:08;;;;;;;18.73;8.55;;;;;;;;;;5054356;28;20032;-75
2022/04/28 04:53:34;;;;;;;19.52;8.85;;;;;;;;;;5054407;28;20024;-76
2022/04/28 04:56:00;;;;;;;22.55;8.18;;;;;;;;;;5054405;28;20029;-75
2022/04/28 04:58:26;;;;;;;22.55;8.68;;;;;;;;;;5054338;28;20102;-75
2022/04/28 05:00:52;;;;;;;23.27;9.50;;;;;;;;;;5054025;28;20440;-76
2022/04/28 05:03:19;;;;;;;23.27;8.95;;;;;;;;;;5054194;28;20041;-76
2022/04/28 05:05:45;;;;;;;20.63;8.40;;;;;;;;;;5054149;28;20025;-75
2022/04/28 05:08:12;;;;;;;19.45;9.30;;;;;;;;;;5054163;28;20021;-75
2022/04/28 05:10:38;;;;;;;21.35;7.93;;;;;;;;;;5053773;28;20091;-75
2022/04/28 05:13:04;;;;;;;18.98;8.02;;;;;;;;;;5054071;28;20021;-75
2022/04/28 05:15:30;;;;;;;19.95;7.10;;;;;;;;;;5053159;28;20101;-76
2022/04/28 05:17:56;;;;;;;17.05;8.25;;;;;;;;;;5052612;28;20036;-76
2022/04/28 05:20:22;;;;;;;15.88;7.65;;;;;;;;;;5053722;28;20033;-75
2022/04/28 05:22:48;;;;;;;18.42;7.65;;;;;;;;;;5053830;28;20029;-76
2022/04/28 05:25:15;;;;;;;17.40;7.32;;;;;;;;;;5053889;28;20410;-76
2022/04/28 05:27:41;;;;;;;23.80;7.63;;;;;;;;;;5053741;28;20481;-76
2022/04/28 05:30:07;;;;;;;16.83;7.18;;;;;;;;;;5053435;28;20203;-75
2022/04/28 05:32:33;;;;;;;14.80;7.10;;;;;;;;;;5053706;28;20456;-76
2022/04/28 05:34:59;;;;;;;21.92;7.38;;;;;;;;;;5053428;28;20868;-75
2022/04/28 05:37:25;;;;;;;17.55;7.85;;;;;;;;;;5053560;28;20353;-75
2022/04/28 05:39:51;;;;;;;12.15;6.30;;;;;;;;;;5053531;28;20021;-76
2022/04/28 05:42:18;;;;;;;11.60;6.00;;;;;;;;;;5053561;28;20051;-76
2022/04/28 05:47:29;;;;;;;14.15;5.85;;;;;;;;;;5053336;28;20455;-75
2022/04/28 05:49:55;;;;;;;21.45;6.13;;;;;;;;;;5053090;28;20020;-73
2022/04/28 05:52:22;;;;;;;17.85;5.57;;;;;;;;;;5052054;28;20028;-75
2022/04/28 05:54:48;;;;;;;19.20;5.80;;;;;;;;;;5052941;28;20071;-75
2022/04/28 05:57:14;;;;;;;18.00;6.32;;;;;;;;;;5052699;28;20033;-75
2022/04/28 05:59:40;;;;;;;14.57;5.82;;;;;;;;;;5052923;28;20027;-74
2022/04/28 06:02:06;;;;;;;13.15;5.45;;;;;;;;;;5051229;28;20023;-75
2022/04/28 06:04:32;;;;;;;15.63;6.85;;;;;;;;;;5052750;28;20029;-75
2022/04/28 06:06:58;;;;;;;22.92;6.03;;;;;;;;;;5052976;28;20043;-75
2022/04/28 06:09:24;;;;;;;14.13;5.40;;;;;;;;;;5053348;28;20029;-75
2022/04/28 06:11:50;;;;;;;15.85;5.97;;;;;;;;;;5052292;28;20095;-75
2022/04/28 06:14:16;;;;;;;17.10;5.50;;;;;;;;;;5052543;28;20070;-75
2022/04/28 06:16:42;;;;;;;12.38;5.05;;;;;;;;;;5052378;28;20033;-75
2022/04/28 06:19:08;;;;;;;12.60;5.22;;;;;;;;;;5051855;28;20051;-75
2022/04/28 06:21:35;;;;;;;16.15;5.25;;;;;;;;;;5052200;28;20092;-76
2022/04/28 06:24:01;;;;;;;15.00;5.20;;;;;;;;;;5052352;28;20603;-75
2022/04/28 06:26:27;;;;;;;12.68;4.88;;;;;;;;;;5051346;28;20378;-75
2022/04/28 06:28:53;;;;;;;13.80;4.60;;;;;;;;;;5052301;28;20036;-75
2022/04/28 06:31:19;;;;;;;13.02;4.95;;;;;;;;;;5051819;28;20025;-76
2022/04/28 06:33:45;;;;;;;14.95;4.82;;;;;;;;;;5052132;28;20159;-75
2022/04/28 06:36:11;;;;;;;15.27;4.72;;;;;;;;;;5052258;28;20017;-76
2022/04/28 06:38:37;;;;;;;13.27;4.32;;;;;;;;;;5052523;28;20029;-76
2022/04/28 06:41:03;;;;;;;12.60;4.40;;;;;;;;;;5052354;28;20086;-75
2022/04/28 06:43:29;;;;;;;11.40;4.22;;;;;;;;;;5052207;28;20036;-76
2022/04/28 06:46:14;;;;;;;13.93;4.30;;;;;;;;;;5052141;28;20031;-76
2022/04/28 06:48:40;;;;;;;11.10;4.20;;;;;;;;;;5051804;28;20040;-76
2022/04/28 06:51:06;;;;;;;41.50;7.90;;;;;;;;;;5051741;28;20024;-76
2022/04/28 06:53:32;;;;;;;16.13;5.15;;;;;;;;;;5051907;28;20102;-76
2022/04/28 06:55:58;;;;;;;11.45;3.45;;;;;;;;;;5052151;28;20471;-75
2022/04/28 06:58:24;;;;;;;12.10;3.30;;;;;;;;;;5050738;28;20025;-75
2022/04/28 07:00:50;;;;;;;9.23;3.10;;;;;;;;;;5051915;28;20032;-76
2022/04/28 07:03:16;;;;;;;14.23;2.75;;;;;;;;;;5052038;28;20029;-76
2022/04/28 07:05:42;;;;;;;12.63;2.53;;;;;;;;;;5051976;28;20021;-76
2022/04/28 07:08:08;;;;;;;13.20;3.38;;;;;;;;;;5052132;28;20021;-75
2022/04/28 07:10:37;;;;;;;13.40;2.95;;;;;;;;;;5050369;28;20061;-75
2022/04/28 07:13:03;;;;;;;11.43;2.70;;;;;;;;;;5051933;28;20036;-76
2022/04/28 07:15:29;;;;;;;9.20;2.65;;;;;;;;;;5051673;28;20497;-76
2022/04/28 07:17:55;;;;;;;6.60;2.22;;;;;;;;;;5051981;28;20313;-78
2022/04/28 07:20:21;;;;;;;7.68;2.13;;;;;;;;;;5051741;28;20039;-74
2022/04/28 07:22:47;;;;;;;6.60;2.00;;;;;;;;;;5051303;28;20025;-79
2022/04/28 07:25:13;;;;;;;7.00;2.38;;;;;;;;;;5051855;28;20036;-77
2022/04/28 07:27:39;;;;;;;10.25;2.20;;;;;;;;;;5052079;28;20067;-77
2022/04/28 07:30:06;;;;;;;10.75;2.67;;;;;;;;;;5050919;28;20033;-76
2022/04/28 07:32:33;;;;;;;11.13;2.20;;;;;;;;;;5047279;28;20025;-77
2022/04/28 07:34:59;;;;;;;8.93;1.98;;;;;;;;;;5031673;28;20044;-76
2022/04/28 07:37:25;;;;;;;14.02;2.22;;;;;;;;;;5031926;28;20072;-76
2022/04/28 07:39:51;;;;;;;10.07;2.03;;;;;;;;;;5035810;28;20037;-79
2022/04/28 07:42:17;;;;;;;15.77;2.30;;;;;;;;;;5036115;28;20164;-78
2022/04/28 07:44:43;;;;;;;7.47;2.50;;;;;;;;;;5035841;28;20104;-76
2022/04/28 07:47:10;;;;;;;10.70;2.25;;;;;;;;;;5035568;28;20036;-76
2022/04/28 07:49:36;;;;;;;7.05;2.10;;;;;;;;;;5035734;28;20033;-76
2022/04/28 07:52:02;;;;;;;6.47;2.53;;;;;;;;;;5035541;28;20044;-76
2022/04/28 07:54:28;;;;;;;9.73;2.85;;;;;;;;;;5035496;28;20049;-76
2022/04/28 07:56:54;;;;;;;10.07;2.30;;;;;;;;;;5035605;28;20036;-76
2022/04/28 07:59:20;;;;;;;8.05;2.33;;;;;;;;;;5035455;28;20029;-76
2022/04/28 08:01:46;;;;;;;11.02;2.85;;;;;;;;;;5047494;28;20021;-76
2022/04/28 08:04:12;;;;;;;15.77;3.45;;;;;;;;;;5054780;28;20029;-76
2022/04/28 08:06:38;;;;;;;9.10;2.63;;;;;;;;;;5053748;28;20075;-76
2022/04/28 08:09:05;;;;;;;12.43;2.72;;;;;;;;;;5055445;28;20103;-76
2022/04/28 08:11:31;;;;;;;8.80;2.50;;;;;;;;;;5054978;28;20047;-76
2022/04/28 08:13:57;;;;;;;6.97;2.70;;;;;;;;;;5055161;28;20021;-76
2022/04/28 08:16:23;;;;;;;12.35;2.90;;;;;;;;;;5055153;28;20091;-75
2022/04/28 08:18:49;;;;;;;8.82;2.65;;;;;;;;;;5053670;28;20028;-76
2022/04/28 08:21:15;;;;;;;9.60;2.78;;;;;;;;;;5055080;28;20028;-76
2022/04/28 08:23:41;;;;;;;11.70;2.55;;;;;;;;;;5054819;28;20056;-76
2022/04/28 08:26:07;;;;;;;7.88;2.17;;;;;;;;;;5054815;28;20656;-76
2022/04/28 08:28:34;;;;;;;12.35;2.45;;;;;;;;;;5054754;28;20035;-76
2022/04/28 08:31:00;;;;;;;9.98;2.40;;;;;;;;;;5054386;28;20021;-76
2022/04/28 08:33:26;;;;;;;9.07;2.58;;;;;;;;;;5054663;28;20028;-76
2022/04/28 08:35:52;;;;;;;9.95;3.03;;;;;;;;;;5054399;28;20017;-77
2022/04/28 08:38:18;;;;;;;8.30;2.30;;;;;;;;;;5054831;28;20025;-77
2022/04/28 08:40:47;;;;;;;8.27;2.30;;;;;;;;;;5054724;28;20032;-77
2022/04/28 08:43:15;;;;;;;9.38;2.42;;;;;;;;;;5054477;28;20036;-76
2022/04/28 08:46:50;;;;;;;9.90;2.75;;;;;;;;;;5054475;28;20032;-77
2022/04/28 08:48:30;;;;;;;10.43;2.20;;;;;;;;;;5054531;28;20037;-77
2022/04/28 08:50:57;;;;;;;13.80;2.67;;;;;;;;;;5053222;28;20029;-76
2022/04/28 08:53:23;;;;;;;9.27;2.60;;;;;;;;;;5054363;28;20463;-77
2022/04/28 08:55:49;;;;;;;9.07;3.17;;;;;;;;;;5054385;28;20486;-79
2022/04/28 08:58:15;;;;;;;10.45;2.05;;;;;;;;;;5055234;28;20021;-79
2022/04/28 09:00:41;;;;;;;11.65;2.72;;;;;;;;;;5052831;28;20365;-78
2022/04/28 09:03:07;;;;;;;7.43;2.10;;;;;;;;;;5055312;28;20013;-79
2022/04/28 09:05:33;;;;;;;10.18;2.78;;;;;;;;;;5055059;28;20024;-81
2022/04/28 09:08:00;;;;;;;9.48;2.55;;;;;;;;;;5055567;28;20032;-81
2022/04/28 09:10:30;;;;;;;12.45;2.95;;;;;;;;;;5054483;28;20052;-78
2022/04/28 09:14:09;;;;;;;10.75;2.75;;;;;;;;;;5053150;28;20029;-78
2022/04/28 09:15:54;;;;;;;11.55;2.50;;;;;;;;;;5054732;28;20043;-78
2022/04/28 09:18:21;;;;;;;10.43;2.97;;;;;;;;;;5055240;28;20457;-78
2022/04/28 09:20:47;;;;;;;7.57;2.40;;;;;;;;;;5055259;28;20025;-79
2022/04/28 09:23:14;;;;;;;14.52;2.72;;;;;;;;;;5054079;28;20029;-80
2022/04/28 09:25:44;;;;;;;10.43;2.65;;;;;;;;;;5053137;28;20422;-78
2022/04/28 09:28:10;;;;;;;17.15;2.72;;;;;;;;;;5054916;28;20029;-79
2022/04/28 09:30:48;;;;;;;7.25;2.08;;;;;;;;;;5046311;28;20034;-78
2022/04/28 09:33:15;;;;;;;15.80;3.00;;;;;;;;;;5035406;28;20049;-79
2022/04/28 09:35:54;;;;;;;6.88;2.60;;;;;;;;;;5033400;28;20037;-79
2022/04/28 09:38:21;;;;;;;10.43;2.20;;;;;;;;;;5033528;28;20021;-79
2022/04/28 09:43:34;;;;;;;8.45;2.55;;;;;;;;;;5035135;28;20087;-82
2022/04/28 09:46:01;;;;;;;11.10;2.65;;;;;;;;;;5034970;28;20110;-81
2022/04/28 09:48:30;;;;;;;9.43;2.55;;;;;;;;;;5035064;28;20056;-79
2022/04/28 09:51:00;;;;;;;18.85;3.42;;;;;;;;;;5034930;28;20025;-80
2022/04/28 09:53:29;;;;;;;7.43;2.42;;;;;;;;;;5034745;28;20095;-80
2022/04/28 09:55:55;;;;;;;11.77;3.30;;;;;;;;;;5033600;28;20026;-79
2022/04/28 09:58:21;;;;;;;6.63;2.05;;;;;;;;;;5034536;28;20025;-79
2022/04/28 10:00:47;;;;;;;8.18;2.50;;;;;;;;;;5034147;28;20467;-79
2022/04/28 10:03:14;;;;;;;8.40;2.50;;;;;;;;;;5034551;28;20033;-80
2022/04/28 10:05:41;;;;;;;12.07;3.35;;;;;;;;;;5034173;28;20030;-78
2022/04/28 10:08:07;;;;;;;8.20;2.50;;;;;;;;;;5047832;28;20025;-78
2022/04/28 10:10:35;;;;;;;7.63;2.30;;;;;;;;;;5053655;28;20052;-76
2022/04/28 10:13:01;;;;;;;6.45;2.42;;;;;;;;;;5053445;28;20108;-76
2022/04/28 10:15:30;;;;;;;9.23;2.35;;;;;;;;;;5053113;28;20024;-77
2022/04/28 10:18:00;;;;;;;6.60;1.95;;;;;;;;;;5053320;28;20087;-76
2022/04/28 10:20:29;;;;;;;10.95;3.03;;;;;;;;;;5052854;28;20025;-77
2022/04/28 10:22:57;;;;;;;9.00;2.40;;;;;;;;;;5052824;28;20112;-76
2022/04/28 10:33:44;;;;;;;9.43;2.10;;;;;;;;;;5052756;28;20116;-76
2022/04/28 10:36:18;;;;;;;8.00;2.40;;;;;;;;;;5052423;28;20028;-77
2022/04/28 10:39:03;;;;;;;5.35;2.22;;;;;;;;;;5052041;28;20030;-76
2022/04/28 10:41:29;;;;;;;43.20;7.55;;;;;;;;;;5049496;28;20039;-77
2022/04/28 10:43:58;;;;;;;16.98;4.15;;;;;;;;;;5050723;28;20374;-77
2022/04/28 10:46:28;;;;;;;31.65;5.53;;;;;;;;;;5050551;28;20045;-76
2022/04/28 10:49:05;;;;;;;31.45;6.72;;;;;;;;;;5051798;28;20016;-77
2022/04/28 10:51:32;;;;;;;12.18;3.08;;;;;;;;;;5049544;28;20028;-77
2022/04/28 10:54:19;;;;;;;26.48;4.97;;;;;;;;;;5052214;28;20530;-77
2022/04/28 10:56:46;;;;;;;7.63;2.38;;;;;;;;;;5052235;28;20048;-77
2022/04/28 10:59:24;;;;;;;9.05;2.42;;;;;;;;;;5052232;28;20029;-77
2022/04/28 11:01:50;;;;;;;5.63;2.28;;;;;;;;;;5051921;28;20489;-77
2022/04/28 11:04:17;;;;;;;10.23;3.22;;;;;;;;;;5052150;28;20056;-76
2022/04/28 11:06:48;;;;;;;10.70;3.00;;;;;;;;;;5051915;28;20517;-77
2022/04/28 11:09:14;;;;;;;7.15;2.92;;;;;;;;;;5052407;28;20036;-77
2022/04/28 11:11:49;;;;;;;67.85;13.07;;;;;;;;;;5051803;28;20045;-77
2022/04/28 11:14:15;;;;;;;35.80;4.90;;;;;;;;;;5051143;28;20112;-77
2022/04/28 11:16:42;;;;;;;17.00;3.60;;;;;;;;;;5051651;28;20036;-77
2022/04/28 11:19:09;;;;;;;17.65;3.50;;;;;;;;;;5051823;28;20375;-76
2022/04/28 11:21:38;;;;;;;11.02;3.17;;;;;;;;;;5052026;28;20087;-77
2022/04/28 11:24:05;;;;;;;12.00;3.40;;;;;;;;;;5051861;28;20021;-77
2022/04/28 11:26:31;;;;;;;7.38;2.78;;;;;;;;;;5051784;28;20017;-76
2022/04/28 11:29:04;;;;;;;8.65;2.53;;;;;;;;;;5051680;28;20021;-77
2022/04/28 11:31:31;;;;;;;9.40;2.88;;;;;;;;;;5052244;28;20470;-81
2022/04/28 11:33:57;;;;;;;7.80;3.05;;;;;;;;;;5052381;28;20036;-79
2022/04/28 11:36:25;;;;;;;6.22;2.90;;;;;;;;;;5055020;28;20103;-78
2022/04/28 11:38:52;;;;;;;11.52;2.80;;;;;;;;;;5053137;28;20035;-80
2022/04/28 11:41:23;;;;;;;10.27;2.50;;;;;;;;;;5051614;28;20025;-81
2022/04/28 11:43:50;;;;;;;8.73;2.72;;;;;;;;;;5052771;28;20033;-80
2022/04/28 11:46:17;;;;;;;6.13;2.60;;;;;;;;;;5052672;28;20029;-81
2022/04/28 11:48:43;;;;;;;9.80;2.58;;;;;;;;;;5052631;28;20021;-80
2022/04/28 11:51:09;;;;;;;9.20;2.70;;;;;;;;;;5052471;28;20036;-80
2022/04/28 11:53:45;;;;;;;9.60;2.92;;;;;;;;;;5052779;28;20053;-81
2022/04/28 11:56:22;;;;;;;6.35;2.78;;;;;;;;;;5052364;28;20021;-81
2022/04/28 11:58:51;;;;;;;8.65;2.75;;;;;;;;;;5051602;28;20033;-79
2022/04/28 12:01:20;;;;;;;5.03;2.67;;;;;;;;;;5051937;28;20082;-80
2022/04/28 12:03:47;;;;;;;7.85;2.80;;;;;;;;;;5052182;28;20485;-80
2022/04/28 12:06:15;;;;;;;12.05;3.15;;;;;;;;;;5052048;28;20017;-80
2022/04/28 12:08:41;;;;;;;8.25;2.70;;;;;;;;;;5052187;28;20032;-80
2022/04/28 12:19:24;;;;;;;7.13;3.00;;;;;;;;;;5042537;28;20077;-80
2022/04/28 12:21:50;;;;;;;7.72;3.00;;;;;;;;;;5037754;28;20028;-80
2022/04/28 12:24:22;;;;;;;9.27;3.10;;;;;;;;;;5049610;28;20159;-80
2022/04/28 12:26:48;;;;;;;12.50;3.25;;;;;;;;;;5044071;28;20052;-80
2022/04/28 12:29:16;;;;;;;8.52;3.33;;;;;;;;;;5045187;28;20021;-79
2022/04/28 12:31:43;;;;;;;8.82;2.80;;;;;;;;;;5049228;28;20507;-79
2022/04/28 12:34:23;;;;;;;6.40;2.75;;;;;;;;;;5045871;28;20040;-80
2022/04/28 12:37:06;;;;;;;9.23;3.50;;;;;;;;;;5036766;28;20464;-79
2022/04/28 12:39:52;;;;;;;12.32;2.80;;;;;;;;;;5037659;28;20025;-80
2022/04/28 12:42:19;;;;;;;12.48;3.63;;;;;;;;;;5046371;28;20076;-79
2022/04/28 12:44:46;;;;;;;8.52;3.20;;;;;;;;;;5053017;28;20028;-83
2022/04/28 12:47:12;;;;;;;8.48;3.13;;;;;;;;;;5056518;28;20025;-82
2022/04/28 12:49:48;;;;;;;9.20;3.17;;;;;;;;;;5058786;28;20025;-83
2022/04/28 12:52:31;;;;;;;6.47;2.58;;;;;;;;;;5064813;22;20149;-83
2022/04/28 12:55:04;;;;;;;9.63;3.03;;;;;;;;;;5038263;28;20029;-83
2022/04/28 12:57:31;;;;;;;8.50;3.10;;;;;;;;;;5035554;28;20029;-82
2022/04/28 12:59:57;;;;;;;6.45;2.80;;;;;;;;;;5036495;28;20383;-83
2022/04/28 13:02:30;;;;;;;10.10;3.95;;;;;;;;;;5036225;28;20777;-82
2022/04/28 13:05:07;;;;;;;11.18;3.20;;;;;;;;;;5050680;28;20031;-83
2022/04/28 13:07:33;;;;;;;8.20;2.95;;;;;;;;;;5036145;28;20060;-83
2022/04/28 13:09:59;;;;;;;11.50;3.30;;;;;;;;;;5036102;28;20026;-83
2022/04/28 13:12:25;;;;;;;10.90;3.53;;;;;;;;;;5036065;28;20064;-83
2022/04/28 13:14:52;;;;;;;7.20;3.40;;;;;;;;;;5051017;28;20026;-83
2022/04/28 13:17:19;;;;;;;13.32;3.47;;;;;;;;;;5035755;28;20022;-83
2022/04/28 13:19:45;;;;;;;9.25;2.90;;;;;;;;;;5036112;28;20463;-83
2022/04/28 13:22:11;;;;;;;16.00;3.42;;;;;;;;;;5035438;28;20033;-83
2022/04/28 13:24:37;;;;;;;8.15;3.42;;;;;;;;;;5052381;28;20032;-82
2022/04/28 13:27:03;;;;;;;9.65;3.92;;;;;;;;;;5036137;28;20018;-82
2022/04/28 13:29:29;;;;;;;7.30;2.85;;;;;;;;;;5035561;28;20466;-82
2022/04/28 13:31:55;;;;;;;12.55;3.53;;;;;;;;;;5037468;28;20030;-83
2022/04/28 13:34:21;;;;;;;5.93;2.80;;;;;;;;;;5036877;28;20024;-82
2022/04/28 13:36:47;;;;;;;12.98;3.20;;;;;;;;;;5051028;28;20030;-82
2022/04/28 13:39:13;;;;;;;10.13;4.85;;;;;;;;;;5052129;28;20025;-82
2022/04/28 13:41:41;;;;;;;7.63;2.90;;;;;;;;;;5050342;28;20036;-83
2022/04/28 13:44:07;;;;;;;8.68;2.95;;;;;;;;;;5035211;28;20101;-83
2022/04/28 13:46:33;;;;;;;8.65;3.22;;;;;;;;;;5035081;28;20021;-82
2022/04/28 13:48:59;;;;;;;13.65;3.08;;;;;;;;;;5034399;28;20022;-79
2022/04/28 13:51:25;;;;;;;5.10;2.65;;;;;;;;;;5033919;28;20031;-80
2022/04/28 13:53:51;;;;;;;9.75;3.15;;;;;;;;;;5032888;28;20064;-80
2022/04/28 13:56:17;;;;;;;7.82;3.17;;;;;;;;;;5034303;28;20029;-79
2022/04/28 13:58:44;;;;;;;7.55;2.72;;;;;;;;;;5033732;28;20159;-80
2022/04/28 14:01:11;;;;;;;7.63;2.92;;;;;;;;;;5033606;28;20021;-79
2022/04/28 14:03:37;;;;;;;10.30;4.20;;;;;;;;;;5033477;28;20032;-79
2022/04/28 14:06:04;;;;;;;10.50;3.00;;;;;;;;;;5032944;28;20025;-79
2022/04/28 14:08:30;;;;;;;7.18;3.03;;;;;;;;;;5032760;28;20018;-79
2022/04/28 14:10:59;;;;;;;8.85;3.13;;;;;;;;;;5033058;28;20103;-80
2022/04/28 14:13:25;;;;;;;6.95;3.17;;;;;;;;;;5032675;28;20025;-80
2022/04/28 14:15:51;;;;;;;12.25;3.40;;;;;;;;;;5031507;28;20025;-79
2022/04/28 14:18:17;;;;;;;11.57;3.58;;;;;;;;;;5032722;28;20025;-79
2022/04/28 14:20:44;;;;;;;4.72;2.70;;;;;;;;;;5032650;28;20022;-80
2022/04/28 14:23:10;;;;;;;10.85;2.97;;;;;;;;;;5032495;28;20021;-79
2022/04/28 14:25:36;;;;;;;8.77;3.38;;;;;;;;;;5032606;28;20026;-79
2022/04/28 14:28:06;;;;;;;8.82;2.80;;;;;;;;;;5031860;28;20064;-79
2022/04/28 14:30:33;;;;;;;7.40;2.80;;;;;;;;;;5031222;28;20051;-81
2022/04/28 14:32:59;;;;;;;7.55;3.58;;;;;;;;;;5032522;28;20362;-77
2022/04/28 14:35:25;;;;;;;9.77;2.95;;;;;;;;;;5047364;28;20037;-79
2022/04/28 14:37:51;;;;;;;9.82;3.33;;;;;;;;;;5032916;28;20029;-78
2022/04/28 14:40:18;;;;;;;7.80;2.90;;;;;;;;;;5032516;28;20057;-79
2022/04/28 14:42:44;;;;;;;11.43;3.40;;;;;;;;;;5019788;28;20025;-78
2022/04/28 14:45:10;;;;;;;6.15;2.75;;;;;;;;;;5012658;28;20018;-79
2022/04/28 14:47:37;;;;;;;7.45;3.70;;;;;;;;;;5012005;28;20029;-79
2022/04/28 14:52:51;;;;;;;6.95;3.47;;;;;;;;;;5012716;28;20426;-79
2022/04/28 14:55:17;;;;;;;7.13;3.60;;;;;;;;;;5012822;28;20107;-78
2022/04/28 14:57:45;;;;;;;7.95;3.17;;;;;;;;;;5013225;28;20424;-80
2022/04/28 15:00:12;;;;;;;8.18;2.67;;;;;;;;;;5013169;28;20034;-78
2022/04/28 15:02:39;;;;;;;5.57;2.40;;;;;;;;;;5047402;28;20091;-79
2022/04/28 15:05:06;;;;;;;10.50;3.20;;;;;;;;;;5047505;28;20438;-78
2022/04/28 15:07:33;;;;;;;10.48;2.95;;;;;;;;;;5047484;28;20448;-78
2022/04/28 15:10:00;;;;;;;9.60;2.58;;;;;;;;;;5031447;28;20045;-83
2022/04/28 15:12:29;;;;;;;13.23;3.10;;;;;;;;;;5032803;28;20447;-79